createdAt,value
2023-09-05T00:00:11.550Z,24.90
2023-09-05T00:02:39.775Z,24.90
2023-09-05T00:05:07.778Z,24.88
2023-09-05T00:07:36.267Z,24.87
2023-09-05T00:10:04.368Z,24.84
2023-09-05T00:12:31.591Z,24.82
2023-09-05T00:14:58.740Z,24.81
2023-09-05T00:17:25.584Z,24.79
2023-09-05T00:19:52.328Z,24.78
2023-09-05T00:22:20.187Z,24.76
2023-09-05T00:24:47.035Z,24.74
2023-09-05T00:27:13.975Z,24.72
2023-09-05T00:29:41.044Z,24.70
2023-09-05T00:32:09.476Z,24.68
2023-09-05T00:34:38.082Z,24.66
2023-09-05T00:37:05.238Z,24.71
2023-09-05T00:39:32.530Z,24.63
2023-09-05T00:41:59.368Z,24.61
2023-09-05T00:44:26.372Z,24.60
2023-09-05T00:46:55.549Z,24.56
2023-09-05T00:49:23.719Z,24.53
2023-09-05T00:51:51.351Z,24.50
2023-09-05T00:54:18.248Z,24.47
2023-09-05T00:56:45.193Z,24.44
2023-09-05T00:59:12.241Z,24.40
2023-09-05T01:01:39.159Z,24.37
2023-09-05T01:04:06.128Z,24.35
2023-09-05T01:06:33.073Z,24.33
2023-09-05T01:09:06.370Z,24.30
2023-09-05T01:11:33.522Z,24.29
2023-09-05T01:14:00.358Z,24.25
2023-09-05T01:16:27.214Z,24.21
2023-09-05T01:18:54.145Z,24.17
2023-09-05T01:21:31.535Z,24.15
2023-09-05T01:24:11.864Z,24.13
2023-09-05T01:26:39.398Z,24.11
2023-09-05T01:29:06.311Z,24.08
2023-09-05T01:31:33.643Z,24.05
2023-09-05T01:34:00.700Z,24.03
2023-09-05T01:36:27.670Z,24.00
2023-09-05T01:38:54.485Z,23.98
2023-09-05T01:41:21.329Z,23.95
2023-09-05T01:43:48.332Z,23.93
2023-09-05T01:46:15.187Z,23.91
2023-09-05T01:48:41.956Z,23.90
2023-09-05T01:51:10.133Z,23.90
2023-09-05T01:53:36.979Z,23.88
2023-09-05T01:56:03.825Z,23.87
2023-09-05T01:58:30.860Z,23.84
2023-09-05T02:01:01.738Z,23.82
2023-09-05T02:03:29.076Z,23.80
2023-09-05T02:05:56.386Z,23.78
2023-09-05T02:08:23.552Z,23.74
2023-09-05T02:10:50.549Z,23.72
2023-09-05T02:13:18.055Z,23.69
2023-09-05T02:15:45.208Z,23.65
2023-09-05T02:18:12.319Z,23.61
2023-09-05T02:20:39.712Z,23.58
2023-09-05T02:23:07.073Z,23.56
2023-09-05T02:25:34.224Z,23.53
2023-09-05T02:28:01.057Z,23.51
2023-09-05T02:30:27.913Z,23.48
2023-09-05T02:32:54.976Z,23.45
2023-09-05T02:35:25.294Z,23.44
2023-09-05T02:37:52.533Z,23.42
2023-09-05T02:40:19.488Z,23.41
2023-09-05T02:42:46.212Z,23.39
2023-09-05T02:45:13.251Z,23.37
2023-09-05T02:47:40.763Z,23.36
2023-09-05T02:50:08.272Z,23.33
2023-09-05T02:52:45.834Z,23.30
2023-09-05T02:55:15.905Z,23.28
2023-09-05T02:57:42.911Z,23.27
2023-09-05T03:00:10.130Z,23.25
2023-09-05T03:02:41.003Z,23.23
2023-09-05T03:05:07.956Z,23.22
2023-09-05T03:07:34.797Z,23.21
2023-09-05T03:10:02.694Z,23.19
2023-09-05T03:12:29.921Z,23.16
2023-09-05T03:14:56.966Z,23.15
2023-09-05T03:17:24.429Z,23.14
2023-09-05T03:19:51.468Z,23.12
2023-09-05T03:22:18.313Z,23.11
2023-09-05T03:24:45.162Z,23.10
2023-09-05T03:27:14.043Z,23.08
2023-09-05T03:29:40.891Z,23.07
2023-09-05T03:32:07.693Z,23.03
2023-09-05T03:34:35.403Z,23.01
2023-09-05T03:37:02.251Z,23.02
2023-09-05T03:39:29.296Z,23.01
2023-09-05T03:41:56.227Z,23.00
2023-09-05T03:44:24.296Z,23.01
2023-09-05T03:46:51.101Z,23.02
2023-09-05T03:49:18.020Z,23.02
2023-09-05T03:51:44.821Z,23.00
2023-09-05T03:54:13.609Z,23.00
2023-09-05T03:56:40.431Z,23.01
2023-09-05T03:59:07.292Z,23.11
2023-09-05T04:01:34.668Z,23.17
2023-09-05T04:04:01.621Z,23.19
2023-09-05T04:06:28.541Z,23.20
2023-09-05T04:08:55.384Z,23.19
2023-09-05T04:11:22.144Z,23.20
2023-09-05T04:13:49.066Z,23.20
2023-09-05T04:16:15.958Z,23.20
2023-09-05T04:18:43.064Z,23.20
2023-09-05T04:21:10.409Z,23.20
2023-09-05T04:23:37.981Z,23.21
2023-09-05T04:26:05.538Z,23.20
2023-09-05T04:28:33.084Z,23.20
2023-09-05T04:31:03.525Z,23.26
2023-09-05T04:33:37.870Z,23.32
2023-09-05T04:36:09.299Z,23.31
2023-09-05T04:38:36.735Z,23.35
2023-09-05T04:41:03.797Z,23.37
2023-09-05T04:43:30.836Z,23.40
2023-09-05T04:45:57.671Z,23.39
2023-09-05T04:48:25.282Z,23.30
2023-09-05T04:50:52.516Z,23.28
2023-09-05T04:53:19.435Z,23.28
2023-09-05T04:55:47.811Z,23.28
2023-09-05T04:58:14.767Z,23.27
2023-09-05T05:00:42.195Z,23.27
2023-09-05T05:03:09.149Z,23.30
2023-09-05T05:05:36.623Z,23.34
2023-09-05T05:08:03.766Z,23.37
2023-09-05T05:10:34.598Z,23.39
2023-09-05T05:13:01.641Z,23.41
2023-09-05T05:15:28.659Z,23.43
2023-09-05T05:17:55.698Z,23.44
2023-09-05T05:20:22.723Z,23.46
2023-09-05T05:22:49.527Z,23.48
2023-09-05T05:25:16.696Z,23.51
2023-09-05T05:27:44.026Z,23.52
2023-09-05T05:30:11.325Z,23.54
2023-09-05T05:32:38.343Z,23.58
2023-09-05T05:35:05.370Z,23.62
2023-09-05T05:37:32.442Z,23.68
2023-09-05T05:39:59.279Z,23.72
2023-09-05T05:42:26.106Z,23.77
2023-09-05T05:44:52.843Z,23.79
2023-09-05T05:47:19.496Z,23.83
2023-09-05T05:49:46.531Z,23.86
2023-09-05T05:52:13.500Z,23.90
2023-09-05T05:54:40.319Z,23.92
2023-09-05T05:57:07.257Z,23.98
2023-09-05T05:59:34.100Z,24.02
2023-09-05T06:02:01.314Z,24.09
2023-09-05T06:04:28.640Z,24.18
2023-09-05T06:06:55.571Z,24.26
2023-09-05T06:09:22.417Z,24.35
2023-09-05T06:11:49.349Z,24.45
2023-09-05T06:14:16.484Z,24.56
2023-09-05T06:16:45.864Z,24.67
2023-09-05T06:19:13.549Z,24.75
2023-09-05T06:21:41.312Z,24.83
2023-09-05T06:24:08.177Z,24.90
2023-09-05T06:26:35.198Z,24.95
2023-09-05T06:29:02.767Z,24.98
2023-09-05T06:31:31.098Z,25.01
2023-09-05T06:33:58.089Z,25.02
2023-09-05T06:36:24.935Z,25.04
2023-09-05T06:38:52.082Z,25.06
2023-09-05T06:41:19.742Z,25.09
2023-09-05T06:43:46.788Z,25.13
2023-09-05T06:46:14.070Z,25.16
2023-09-05T06:48:41.502Z,25.18
2023-09-05T06:51:08.758Z,25.21
2023-09-05T06:53:35.690Z,25.24
2023-09-05T06:56:02.735Z,25.27
2023-09-05T06:58:30.059Z,25.29
2023-09-05T07:00:57.499Z,25.29
2023-09-05T07:03:25.109Z,25.28
2023-09-05T07:08:25.072Z,25.28
2023-09-05T07:10:52.094Z,25.30
2023-09-05T07:13:18.853Z,25.34
2023-09-05T07:15:46.005Z,25.37
2023-09-05T07:18:13.535Z,25.41
2023-09-05T07:20:40.685Z,25.45
2023-09-05T07:23:07.627Z,25.50
2023-09-05T07:25:37.767Z,25.61
2023-09-05T07:28:05.713Z,25.68
2023-09-05T07:30:33.074Z,25.71
2023-09-05T07:33:00.181Z,25.80
2023-09-05T07:35:27.274Z,25.86
2023-09-05T07:37:54.220Z,25.87
2023-09-05T07:40:23.300Z,25.86
2023-09-05T07:42:50.936Z,25.86
2023-09-05T07:45:17.638Z,25.89
2023-09-05T07:47:45.197Z,25.89
2023-09-05T07:50:12.138Z,25.92
2023-09-05T07:52:39.800Z,25.94
2023-09-05T07:55:07.050Z,25.96
2023-09-05T07:57:36.115Z,25.99
2023-09-05T08:00:03.599Z,26.02
2023-09-05T08:02:40.478Z,26.06
2023-09-05T08:05:07.608Z,26.10
2023-09-05T08:07:34.336Z,26.10
2023-09-05T08:10:01.195Z,26.11
2023-09-05T08:12:29.063Z,26.11
2023-09-05T08:14:57.224Z,26.13
2023-09-05T08:17:24.177Z,26.17
2023-09-05T08:19:51.018Z,26.23
2023-09-05T08:22:18.575Z,26.30
2023-09-05T08:24:45.415Z,26.37
2023-09-05T08:27:15.438Z,26.44
2023-09-05T08:29:42.883Z,26.48
2023-09-05T08:32:09.997Z,26.53
2023-09-05T08:34:41.601Z,26.61
2023-09-05T08:37:08.647Z,26.68
2023-09-05T08:39:35.701Z,26.77
2023-09-05T08:42:07.188Z,26.85
2023-09-05T08:44:38.785Z,26.92
2023-09-05T08:47:06.658Z,26.96
2023-09-05T08:49:34.009Z,27.01
2023-09-05T08:52:03.119Z,27.07
2023-09-05T08:54:30.148Z,27.13
2023-09-05T08:56:57.628Z,27.16
2023-09-05T08:59:27.682Z,27.19
2023-09-05T09:01:56.729Z,27.21
2023-09-05T09:04:24.368Z,27.27
2023-09-05T09:06:54.214Z,27.34
2023-09-05T09:09:39.080Z,27.39
2023-09-05T09:12:06.107Z,27.45
2023-09-05T09:14:33.040Z,27.48
2023-09-05T09:17:01.181Z,27.54
2023-09-05T09:19:30.025Z,27.63
2023-09-05T09:22:01.264Z,27.71
2023-09-05T09:24:37.926Z,27.80
2023-09-05T09:27:05.427Z,27.88
2023-09-05T09:29:32.646Z,27.95
2023-09-05T09:32:08.593Z,27.99
2023-09-05T09:34:37.207Z,28.05
2023-09-05T09:37:04.015Z,28.13
2023-09-05T09:39:31.929Z,28.19
2023-09-05T09:42:02.804Z,28.21
2023-09-05T09:44:30.679Z,28.24
2023-09-05T09:46:58.067Z,28.29
2023-09-05T09:49:25.506Z,28.36
2023-09-05T09:51:56.642Z,28.44
2023-09-05T09:54:30.141Z,28.50
2023-09-05T09:57:01.669Z,28.53
2023-09-05T09:59:31.764Z,28.56
2023-09-05T10:01:58.598Z,28.61
2023-09-05T10:04:25.608Z,28.67
2023-09-05T10:06:52.640Z,28.71
2023-09-05T10:09:19.384Z,28.73
2023-09-05T10:11:46.425Z,28.76
2023-09-05T10:14:13.369Z,28.78
2023-09-05T10:16:41.090Z,28.82
2023-09-05T10:19:08.400Z,28.86
2023-09-05T10:21:35.076Z,28.93
2023-09-05T10:24:01.872Z,29.00
2023-09-05T10:26:30.305Z,29.03
2023-09-05T10:28:59.423Z,29.06
2023-09-05T10:31:26.109Z,29.10
2023-09-05T10:33:53.027Z,29.16
2023-09-05T10:36:39.014Z,29.22
2023-09-05T10:39:18.443Z,29.28
2023-09-05T10:41:45.107Z,29.32
2023-09-05T10:44:12.142Z,29.34
2023-09-05T10:46:39.797Z,29.30
2023-09-05T10:49:15.446Z,29.32
2023-09-05T10:52:01.163Z,29.37
2023-09-05T10:54:28.996Z,29.40
2023-09-05T10:56:55.806Z,29.41
2023-09-05T10:59:30.565Z,29.42
2023-09-05T11:02:01.342Z,29.43
2023-09-05T11:04:30.763Z,29.45
2023-09-05T11:06:58.794Z,29.48
2023-09-05T11:09:25.617Z,29.51
2023-09-05T11:11:53.593Z,29.56
2023-09-05T11:14:30.260Z,29.59
2023-09-05T11:16:57.405Z,29.64
2023-09-05T11:19:30.416Z,29.70
2023-09-05T11:22:09.418Z,29.73
2023-09-05T11:24:36.477Z,29.68
2023-09-05T11:27:04.585Z,29.68
2023-09-05T11:29:32.817Z,29.71
2023-09-05T11:32:00.165Z,29.76
2023-09-05T11:34:28.447Z,29.81
2023-09-05T11:36:57.437Z,29.86
2023-09-05T11:39:30.451Z,29.98
2023-09-05T11:41:59.309Z,30.03
2023-09-05T11:44:33.120Z,30.04
2023-09-05T11:46:59.993Z,30.04
2023-09-05T11:49:27.018Z,30.04
2023-09-05T11:51:54.011Z,30.10
2023-09-05T11:54:21.115Z,30.23
2023-09-05T11:56:48.776Z,30.27
2023-09-05T11:59:16.322Z,30.26
2023-09-05T12:01:43.284Z,30.17
2023-09-05T12:04:10.425Z,30.15
2023-09-05T12:06:37.886Z,30.23
2023-09-05T12:09:05.965Z,30.30
2023-09-05T12:11:32.889Z,30.30
2023-09-05T12:13:59.744Z,30.28
2023-09-05T12:16:26.682Z,30.27
2023-09-05T12:19:02.870Z,30.26
2023-09-05T12:21:42.584Z,30.25
2023-09-05T12:24:16.441Z,30.29
2023-09-05T12:26:43.343Z,30.29
2023-09-05T12:29:10.381Z,30.31
2023-09-05T12:31:38.194Z,30.34
2023-09-05T12:34:05.237Z,30.40
2023-09-05T12:36:34.497Z,30.43
2023-09-05T12:39:01.428Z,30.48
2023-09-05T12:41:28.494Z,30.53
2023-09-05T12:43:56.038Z,30.57
2023-09-05T12:46:23.122Z,30.62
2023-09-05T12:48:54.604Z,30.66
2023-09-05T12:51:21.580Z,30.70
2023-09-05T12:53:50.164Z,30.72
2023-09-05T12:56:17.010Z,30.76
2023-09-05T12:58:44.774Z,30.79
2023-09-05T13:01:11.666Z,30.82
2023-09-05T13:03:39.000Z,30.84
2023-09-05T13:06:05.937Z,30.88
2023-09-05T13:08:33.179Z,30.90
2023-09-05T13:11:02.881Z,30.91
2023-09-05T13:13:30.044Z,30.90
2023-09-05T13:15:56.893Z,30.90
2023-09-05T13:18:23.896Z,30.91
2023-09-05T13:20:51.370Z,30.93
2023-09-05T13:23:18.851Z,30.94
2023-09-05T13:25:47.042Z,30.96
2023-09-05T13:28:13.940Z,30.92
2023-09-05T13:30:41.124Z,30.89
2023-09-05T13:33:10.109Z,30.91
2023-09-05T13:35:37.042Z,30.94
2023-09-05T13:38:04.182Z,30.97
2023-09-05T13:40:31.261Z,30.99
2023-09-05T13:42:58.766Z,31.09
2023-09-05T13:45:26.096Z,31.09
2023-09-05T13:47:53.061Z,31.08
2023-09-05T13:50:21.997Z,31.09
2023-09-05T13:52:49.461Z,31.09
2023-09-05T13:55:16.299Z,31.09
2023-09-05T13:57:46.360Z,31.09
2023-09-05T14:00:13.811Z,31.10
2023-09-05T14:02:41.276Z,31.10
2023-09-05T14:05:08.079Z,31.11
2023-09-05T14:07:36.429Z,31.11
2023-09-05T14:10:03.577Z,31.12
2023-09-05T14:12:30.687Z,31.11
2023-09-05T14:14:57.585Z,31.09
2023-09-05T14:17:26.405Z,31.07
2023-09-05T14:19:53.317Z,31.07
2023-09-05T14:22:20.252Z,31.06
2023-09-05T14:24:47.161Z,31.08
2023-09-05T14:27:15.509Z,31.07
2023-09-05T14:29:42.314Z,31.06
2023-09-05T14:32:09.226Z,31.07
2023-09-05T14:34:36.236Z,31.05
2023-09-05T14:37:04.169Z,31.03
2023-09-05T14:39:30.957Z,31.01
2023-09-05T14:41:57.914Z,30.99
2023-09-05T14:44:24.996Z,30.96
2023-09-05T14:46:52.455Z,30.95
2023-09-05T14:49:19.502Z,30.93
2023-09-05T14:51:46.302Z,30.90
2023-09-05T14:54:13.928Z,30.87
2023-09-05T14:56:41.706Z,30.84
2023-09-05T14:59:08.415Z,30.80
2023-09-05T15:01:35.444Z,30.76
2023-09-05T15:04:02.810Z,30.72
2023-09-05T15:06:30.116Z,30.69
2023-09-05T15:08:57.007Z,30.64
2023-09-05T15:11:23.853Z,30.61
2023-09-05T15:13:50.894Z,30.58
2023-09-05T15:16:18.965Z,30.53
2023-09-05T15:18:46.291Z,30.49
2023-09-05T15:21:13.520Z,30.44
2023-09-05T15:23:40.538Z,30.39
2023-09-05T15:26:07.563Z,30.34
2023-09-05T15:28:34.403Z,30.30
2023-09-05T15:31:01.158Z,30.26
2023-09-05T15:33:28.036Z,30.22
2023-09-05T15:35:59.845Z,30.19
2023-09-05T15:38:27.142Z,30.17
2023-09-05T15:40:54.355Z,30.14
2023-09-05T15:43:21.198Z,30.13
2023-09-05T15:45:51.615Z,30.10
2023-09-05T15:48:18.696Z,30.07
2023-09-05T15:50:46.065Z,30.05
2023-09-05T15:53:14.429Z,30.02
2023-09-05T15:55:41.961Z,30.00
2023-09-05T15:58:09.158Z,29.97
2023-09-05T16:00:36.341Z,29.94
2023-09-05T16:03:03.680Z,29.91
2023-09-05T16:05:30.666Z,29.86
2023-09-05T16:07:57.633Z,29.81
2023-09-05T16:10:25.065Z,29.67
2023-09-05T16:12:52.073Z,29.61
2023-09-05T16:15:19.124Z,29.57
2023-09-05T16:17:46.322Z,29.54
2023-09-05T16:20:14.895Z,29.49
2023-09-05T16:22:41.830Z,29.46
2023-09-05T16:25:10.744Z,29.44
2023-09-05T16:27:37.592Z,29.42
2023-09-05T16:30:05.943Z,29.40
2023-09-05T16:32:32.912Z,29.37
2023-09-05T16:34:59.848Z,29.37
2023-09-05T16:37:26.614Z,29.35
2023-09-05T16:39:53.634Z,29.33
2023-09-05T16:42:20.545Z,29.31
2023-09-05T16:44:47.607Z,29.30
2023-09-05T16:47:14.760Z,29.29
2023-09-05T16:49:41.604Z,29.28
2023-09-05T16:52:08.521Z,29.26
2023-09-05T16:54:35.371Z,29.15
2023-09-05T16:57:02.742Z,29.10
2023-09-05T16:59:29.717Z,29.19
2023-09-05T17:01:56.631Z,29.19
2023-09-05T17:04:23.764Z,29.19
2023-09-05T17:06:52.432Z,29.18
2023-09-05T17:09:19.539Z,29.15
2023-09-05T17:11:46.768Z,29.14
2023-09-05T17:14:13.608Z,29.13
2023-09-05T17:16:40.684Z,29.18
2023-09-05T17:19:07.548Z,29.20
2023-09-05T17:21:34.546Z,29.19
2023-09-05T17:24:01.536Z,29.18
2023-09-05T17:26:28.639Z,29.16
2023-09-05T17:28:55.898Z,29.12
2023-09-05T17:31:22.807Z,29.12
2023-09-05T17:33:49.920Z,29.11
2023-09-05T17:36:16.861Z,29.10
2023-09-05T17:38:43.995Z,29.09
2023-09-05T17:41:11.122Z,29.09
2023-09-05T17:43:38.089Z,29.08
2023-09-05T17:46:06.569Z,29.07
2023-09-05T17:48:33.747Z,29.07
2023-09-05T17:51:00.763Z,29.06
2023-09-05T17:53:29.255Z,29.04
2023-09-05T17:55:56.489Z,29.02
2023-09-05T17:58:23.746Z,29.00
2023-09-05T18:00:50.972Z,28.98
2023-09-05T18:03:18.164Z,28.95
2023-09-05T18:05:46.145Z,28.93
2023-09-05T18:08:14.988Z,28.90
2023-09-05T18:10:42.825Z,28.87
2023-09-05T18:13:10.107Z,28.83
2023-09-05T18:15:37.101Z,28.81
2023-09-05T18:18:06.062Z,28.78
2023-09-05T18:20:35.221Z,28.76
2023-09-05T18:23:03.314Z,28.73
2023-09-05T18:25:31.604Z,28.70
2023-09-05T18:27:58.435Z,28.68
2023-09-05T18:30:25.775Z,28.65
2023-09-05T18:32:52.817Z,28.62
2023-09-05T18:35:19.788Z,28.60
2023-09-05T18:37:47.880Z,28.56
2023-09-05T18:40:15.252Z,28.54
2023-09-05T18:42:42.584Z,28.51
2023-09-05T18:45:10.626Z,28.48
2023-09-05T18:47:37.658Z,28.45
2023-09-05T18:50:05.234Z,28.43
2023-09-05T18:52:32.210Z,28.40
2023-09-05T18:54:59.410Z,28.37
2023-09-05T18:57:26.653Z,28.34
2023-09-05T18:59:53.827Z,28.33
2023-09-05T19:02:28.171Z,28.31
2023-09-05T19:04:55.501Z,28.30
2023-09-05T19:07:22.752Z,28.28
2023-09-05T19:09:49.550Z,28.18
2023-09-05T19:12:18.829Z,28.13
2023-09-05T19:14:45.865Z,28.11
2023-09-05T19:17:12.895Z,28.07
2023-09-05T19:19:40.451Z,28.02
2023-09-05T19:22:07.349Z,28.01
2023-09-05T19:24:35.795Z,27.97
2023-09-05T19:27:02.815Z,27.92
2023-09-05T19:29:29.866Z,27.90
2023-09-05T19:31:57.192Z,27.89
2023-09-05T19:34:25.194Z,27.87
2023-09-05T19:36:52.256Z,27.84
2023-09-05T19:39:19.541Z,27.81
2023-09-05T19:41:46.650Z,27.80
2023-09-05T19:44:13.686Z,27.78
2023-09-05T19:46:40.570Z,27.75
2023-09-05T19:49:08.084Z,27.74
2023-09-05T19:51:34.961Z,27.71
2023-09-05T19:54:01.936Z,27.68
2023-09-05T19:56:28.972Z,27.66
2023-09-05T19:58:56.189Z,27.64
2023-09-05T20:01:23.219Z,27.62
2023-09-05T20:03:51.961Z,27.60
2023-09-05T20:06:18.992Z,27.58
2023-09-05T20:08:46.613Z,27.56
2023-09-05T20:11:13.354Z,27.52
2023-09-05T20:13:40.215Z,27.51
2023-09-05T20:16:07.356Z,27.49
2023-09-05T20:18:34.303Z,27.48
2023-09-05T20:21:02.250Z,27.44
2023-09-05T20:23:29.324Z,27.39
2023-09-05T20:25:56.183Z,27.39
2023-09-05T20:28:23.103Z,27.36
2023-09-05T20:30:53.759Z,27.33
2023-09-05T20:33:22.432Z,27.32
2023-09-05T20:35:49.969Z,27.27
2023-09-05T20:38:17.317Z,27.24
2023-09-05T20:40:46.101Z,27.26
2023-09-05T20:43:12.957Z,27.25
2023-09-05T20:45:39.996Z,27.21
2023-09-05T20:48:08.977Z,27.16
2023-09-05T20:50:36.666Z,27.16
2023-09-05T20:53:04.411Z,27.15
2023-09-05T20:55:31.463Z,27.13
2023-09-05T20:58:01.826Z,27.13
2023-09-05T21:00:30.020Z,27.10
2023-09-05T21:03:00.055Z,27.06
2023-09-05T21:05:29.894Z,27.02
2023-09-05T21:07:56.730Z,26.99
2023-09-05T21:10:23.685Z,27.03
2023-09-05T21:12:50.642Z,27.04
2023-09-05T21:15:17.614Z,27.02
2023-09-05T21:17:44.922Z,26.99
2023-09-05T21:20:15.768Z,26.97
2023-09-05T21:22:42.914Z,26.95
2023-09-05T21:25:10.335Z,26.92
2023-09-05T21:27:37.440Z,26.90
2023-09-05T21:30:05.068Z,26.86
2023-09-05T21:32:35.730Z,26.85
2023-09-05T21:35:02.957Z,26.83
2023-09-05T21:37:30.209Z,26.81
2023-09-05T21:39:57.187Z,26.76
2023-09-05T21:42:27.221Z,26.67
2023-09-05T21:44:54.519Z,26.64
2023-09-05T21:47:21.597Z,26.60
2023-09-05T21:49:48.515Z,26.56
2023-09-05T21:52:15.463Z,26.54
2023-09-05T21:54:44.460Z,26.51
2023-09-05T21:57:11.331Z,26.49
2023-09-05T21:59:38.234Z,26.46
2023-09-05T22:02:05.755Z,26.43
2023-09-05T22:04:32.783Z,26.40
2023-09-05T22:06:59.737Z,26.37
2023-09-05T22:09:26.947Z,26.33
2023-09-05T22:11:53.986Z,26.30
2023-09-05T22:14:23.690Z,26.28
2023-09-05T22:16:53.555Z,26.26
2023-09-05T22:19:24.647Z,26.23
2023-09-05T22:21:51.509Z,26.20
2023-09-05T22:24:18.591Z,26.18
2023-09-05T22:26:47.231Z,26.15
2023-09-05T22:29:13.969Z,26.12
2023-09-05T22:31:40.926Z,26.09
2023-09-05T22:34:07.916Z,26.06
2023-09-05T22:36:35.026Z,26.02
2023-09-05T22:39:02.063Z,25.99
2023-09-05T22:41:29.504Z,25.95
2023-09-05T22:43:56.349Z,25.92
2023-09-05T22:46:23.381Z,25.89
2023-09-05T22:48:50.762Z,25.85
2023-09-05T22:51:17.791Z,25.82
2023-09-05T22:53:44.740Z,25.79
2023-09-05T22:56:12.345Z,25.75
2023-09-05T22:58:39.246Z,25.73
2023-09-05T23:01:12.392Z,25.69
2023-09-05T23:03:40.130Z,25.64
2023-09-05T23:06:07.253Z,25.61
2023-09-05T23:08:36.670Z,25.59
2023-09-05T23:11:03.613Z,25.57
2023-09-05T23:13:30.636Z,25.55
2023-09-05T23:15:57.548Z,25.54
2023-09-05T23:18:24.586Z,25.54
2023-09-05T23:20:51.780Z,25.53
2023-09-05T23:23:21.107Z,25.51
2023-09-05T23:25:48.127Z,25.50
2023-09-05T23:28:14.966Z,25.48
2023-09-05T23:30:42.441Z,25.44
2023-09-05T23:33:09.437Z,25.42
2023-09-05T23:35:36.647Z,25.44
2023-09-05T23:38:06.536Z,25.43
2023-09-05T23:40:33.481Z,25.41
2023-09-05T23:43:00.285Z,25.38
2023-09-05T23:45:27.414Z,25.34
2023-09-05T23:47:55.063Z,25.31
2023-09-05T23:50:23.510Z,25.30
2023-09-05T23:52:51.087Z,25.27
2023-09-05T23:55:19.038Z,25.25
2023-09-05T23:57:46.387Z,25.23
